Time;durP1;ratioP1;P1;durP2;ratioP2;P2;SDS_P1;SDS_P2;PMS_P1;PMS_P2;Temp;Humidity;BMP_temperature;BMP_pressure;BME280_temperature;BME280_humidity;BME280_pressure;Samples;Min_cycle;Max_cycle;Signal;HPM_P1;HPM_P2
2022/12/01 00:01:40;;;;;;;24.60;17.10;;;;;;;-3.00;99.25;97972.98;107629;1263;71440;-68
2022/12/01 00:04:09;;;;;;;27.20;18.20;;;;;;;-3.01;99.09;97968.71;107695;1267;69172;-69
2022/12/01 00:06:39;;;;;;;27.50;18.30;;;;;;;-3.02;98.83;97970.09;107638;1267;68404;-68
2022/12/01 00:11:56;;;;;;;24.80;15.40;;;;;;;-3.01;98.56;97970.41;107643;1267;59777;-68
2022/12/01 00:14:25;;;;;;;20.40;13.80;;;;;;;-3.00;99.32;97972.81;107674;1265;72031;-69
2022/12/01 00:16:54;;;;;;;21.20;15.30;;;;;;;-2.99;99.75;97971.61;107700;1266;69831;-69
2022/12/01 00:19:25;;;;;;;31.50;21.70;;;;;;;-3.00;99.77;97971.44;107812;1265;68515;-69
2022/12/01 00:21:54;;;;;;;23.00;16.40;;;;;;;-3.04;99.14;97976.60;107919;1263;59762;-69
2022/12/01 00:24:24;;;;;;;26.30;18.20;;;;;;;-3.08;98.90;97976.29;107666;1267;59704;-69
2022/12/01 00:26:52;;;;;;;25.20;18.20;;;;;;;-3.10;99.43;97976.82;107736;1268;71388;-70
2022/12/01 00:29:22;;;;;;;22.80;15.70;;;;;;;-3.11;100.00;97977.52;107776;1266;69333;-69
2022/12/01 00:31:51;;;;;;;20.80;16.40;;;;;;;-3.12;100.00;97973.25;107688;1267;70019;-68
2022/12/01 00:34:23;;;;;;;24.70;17.60;;;;;;;-3.13;100.00;97973.61;107730;1267;59724;-68
2022/12/01 00:36:52;;;;;;;22.00;15.50;;;;;;;-3.16;100.00;97970.73;107667;1266;59710;-69
2022/12/01 00:39:21;;;;;;;24.10;15.60;;;;;;;-3.18;99.94;97971.11;107627;1263;70848;-70
2022/12/01 00:41:50;;;;;;;35.30;22.50;;;;;;;-3.21;99.27;97973.17;107668;1263;69815;-69
2022/12/01 00:44:20;;;;;;;31.80;22.10;;;;;;;-3.24;98.61;97975.92;107656;1269;69252;-69
2022/12/01 00:46:49;;;;;;;29.90;21.60;;;;;;;-3.26;98.40;97975.27;107635;1268;59744;-69
2022/12/01 00:49:19;;;;;;;31.70;22.60;;;;;;;-3.28;98.99;97969.65;107675;1266;59724;-68
2022/12/01 00:51:49;;;;;;;25.80;17.80;;;;;;;-3.29;99.58;97967.79;107648;1268;70741;-69
2022/12/01 00:54:18;;;;;;;32.00;19.70;;;;;;;-3.30;99.61;97972.23;107703;1265;69064;-69
2022/12/01 00:56:48;;;;;;;26.30;18.40;;;;;;;-3.31;100.00;97975.48;107677;1268;69902;-68
2022/12/01 00:59:17;;;;;;;21.80;15.00;;;;;;;-3.31;99.20;97975.14;107622;1269;59692;-69
2022/12/01 01:01:48;;;;;;;25.00;16.70;;;;;;;-3.32;97.67;97973.79;107667;1269;59719;-69
2022/12/01 01:04:19;;;;;;;19.70;14.80;;;;;;;-3.31;97.58;97974.80;107685;1267;71398;-69
2022/12/01 01:06:48;;;;;;;;;;;;;;;-3.31;97.80;97975.66;107641;1266;68337;-68
2022/12/01 01:09:18;;;;;;;14.80;11.20;;;;;;;-3.33;97.63;97973.27;107650;1267;69221;-69
2022/12/01 01:11:48;;;;;;;16.90;12.10;;;;;;;-3.35;98.33;97975.17;107683;1268;59760;-69
2022/12/01 01:14:18;;;;;;;15.90;12.50;;;;;;;-3.36;98.76;97972.29;107679;1265;59704;-68
2022/12/01 01:16:50;;;;;;;25.50;16.70;;;;;;;-3.36;99.77;97968.38;107653;1266;70625;-68
2022/12/01 01:19:19;;;;;;;22.10;14.90;;;;;;;-3.38;100.00;97967.52;107654;1269;68472;-68
2022/12/01 01:21:49;;;;;;;21.50;15.60;;;;;;;-3.39;100.00;97968.72;107660;1267;69215;-68
2022/12/01 01:24:19;;;;;;;20.80;15.30;;;;;;;-3.39;100.00;97967.52;107611;1267;59681;-69
2022/12/01 01:26:49;;;;;;;22.30;15.20;;;;;;;-3.39;100.00;97961.90;107660;1265;59772;-69
2022/12/01 01:29:18;;;;;;;19.20;14.00;;;;;;;-3.40;100.00;97959.70;107630;1267;72333;-68
2022/12/01 01:31:48;;;;;;;16.30;12.90;;;;;;;-3.40;100.00;97958.85;107658;1263;69277;-68
2022/12/01 01:34:18;;;;;;;21.00;14.00;;;;;;;-3.40;100.00;97958.16;107647;1268;69227;-68
2022/12/01 01:36:48;;;;;;;16.80;11.80;;;;;;;-3.38;100.00;97957.64;107647;1267;59784;-68
2022/12/01 01:39:17;;;;;;;15.20;11.40;;;;;;;-3.38;100.00;97953.70;107646;1267;59716;-68
2022/12/01 01:41:48;;;;;;;19.60;13.70;;;;;;;-3.38;99.87;97954.23;107625;1261;71790;-68
2022/12/01 01:44:53;;;;;;;22.70;16.40;;;;;;;-3.37;99.51;97953.38;107275;1267;537704;-68
2022/12/01 01:47:39;;;;;;;21.80;15.10;;;;;;;-3.37;99.86;97951.84;107709;1269;69077;-69
2022/12/01 01:50:12;;;;;;;20.90;14.90;;;;;;;-3.38;100.00;97952.19;107666;1267;59751;-68
2022/12/01 01:52:50;;;;;;;15.40;11.10;;;;;;;-3.39;100.00;97950.33;107639;1265;59655;-68
2022/12/01 01:55:21;;;;;;;20.60;12.90;;;;;;;-3.38;99.43;97946.23;107677;1267;71348;-68
2022/12/01 01:57:52;;;;;;;15.60;11.20;;;;;;;-3.31;99.51;97945.15;107703;1269;68357;-68
2022/12/01 02:00:22;;;;;;;16.30;12.50;;;;;;;-3.27;99.87;97946.13;107685;1266;68395;-69
2022/12/01 02:02:53;;;;;;;15.60;12.00;;;;;;;-3.27;99.81;97944.27;107669;1269;59684;-68
2022/12/01 02:05:33;;;;;;;20.60;12.80;;;;;;;-3.26;97.46;97939.98;107737;1263;59648;-68
2022/12/01 02:08:03;;;;;;;;;;;;;;;-3.25;96.04;97939.28;107765;1263;70627;-69
2022/12/01 02:10:49;;;;;;;;;;;;;;;-3.26;95.96;97939.98;107677;1265;69329;-69
2022/12/01 02:13:46;;;;;;;18.00;12.80;;;;;;;-3.28;96.02;97941.54;107919;1267;69674;-67
2022/12/01 02:16:25;;;;;;;19.40;13.50;;;;;;;-3.33;95.98;97938.16;107727;1265;59763;-67
2022/12/01 02:19:23;;;;;;;22.80;14.60;;;;;;;-3.38;96.74;97939.73;107676;1261;59701;-68
2022/12/01 02:22:02;;;;;;;20.80;12.40;;;;;;;-3.42;95.98;97938.42;107787;1265;70597;-67
2022/12/01 02:24:41;;;;;;;21.70;13.80;;;;;;;-3.43;95.72;97940.63;107720;1263;68553;-69
2022/12/01 02:27:30;;;;;;;20.30;13.00;;;;;;;-3.41;95.76;97941.14;107634;1269;69305;-68
2022/12/01 02:30:08;;;;;;;18.40;13.30;;;;;;;-3.39;96.10;97935.31;107653;1267;59738;-68
2022/12/01 02:32:59;;;;;;;18.00;12.60;;;;;;;-3.35;96.41;97936.48;107671;1266;59700;-68
2022/12/01 02:35:31;;;;;;;17.10;11.30;;;;;;;-3.33;97.58;97938.16;107671;1268;71400;-68
2022/12/01 02:38:11;;;;;;;19.50;11.10;;;;;;;-3.32;97.58;97939.53;107690;1267;68456;-69
2022/12/01 02:41:06;;;;;;;15.90;12.10;;;;;;;-3.30;97.87;97934.73;107693;1267;69273;-68
2022/12/01 02:43:49;;;;;;;20.60;14.60;;;;;;;-3.31;98.41;97934.91;107699;1265;59691;-68
2022/12/01 02:46:35;;;;;;;18.00;14.00;;;;;;;-3.31;98.58;97942.08;107679;1267;59727;-68
2022/12/01 02:49:35;;;;;;;14.90;10.70;;;;;;;-3.32;98.68;97942.92;107644;1269;72012;-68
2022/12/01 02:52:06;;;;;;;24.70;16.00;;;;;;;-3.33;98.61;97939.86;107644;1267;68349;-67
2022/12/01 02:54:37;;;;;;;22.60;16.60;;;;;;;-3.34;99.81;97939.52;107658;1263;69301;-67
2022/12/01 02:57:12;;;;;;;35.20;20.40;;;;;;;-3.35;99.70;97938.36;107642;1267;59753;-69
2022/12/01 02:59:49;;;;;;;39.20;21.70;;;;;;;-3.37;99.69;97939.06;107715;1268;59689;-67
2022/12/01 03:02:42;;;;;;;45.00;25.00;;;;;;;-3.38;100.00;97939.58;107664;1267;70511;-69
2022/12/01 03:05:33;;;;;;;43.10;23.20;;;;;;;-3.38;100.00;97940.41;107741;1268;69235;-69
2022/12/01 03:08:23;;;;;;;26.80;17.60;;;;;;;-3.37;100.00;97943.50;107711;1267;69134;-69
2022/12/01 03:10:53;;;;;;;31.20;18.30;;;;;;;-3.37;100.00;97940.93;107661;1267;59746;-69
2022/12/01 03:13:41;;;;;;;34.10;21.00;;;;;;;-3.38;100.00;97942.98;107621;1265;59747;-67
2022/12/01 03:16:18;;;;;;;26.70;17.20;;;;;;;-3.37;100.00;97939.58;107647;1265;71431;-67
2022/12/01 03:19:05;;;;;;;23.70;15.60;;;;;;;-3.37;100.00;97933.95;107631;1263;69157;-67
2022/12/01 03:21:40;;;;;;;20.40;15.30;;;;;;;-3.37;100.00;97929.34;107649;1268;69155;-67
2022/12/01 03:24:16;;;;;;;21.00;15.00;;;;;;;-3.35;100.00;97933.92;107661;1267;59791;-67
2022/12/01 03:26:50;;;;;;;20.70;14.20;;;;;;;-3.32;100.00;97935.77;107646;1268;59743;-67
2022/12/01 03:29:25;;;;;;;24.70;17.40;;;;;;;-3.28;100.00;97937.10;107712;1265;71366;-68
2022/12/01 03:32:08;;;;;;;24.70;15.30;;;;;;;-3.25;100.00;97931.44;107661;1265;69162;-67
2022/12/01 03:34:48;;;;;;;29.70;19.10;;;;;;;-3.22;100.00;97926.81;107592;1264;69959;-68
2022/12/01 03:37:39;;;;;;;26.20;16.50;;;;;;;-3.24;100.00;97925.46;107605;1269;59745;-68
2022/12/01 03:40:14;;;;;;;25.50;16.20;;;;;;;-3.27;99.72;97924.98;107635;1263;59763;-68
2022/12/01 03:42:51;;;;;;;27.60;17.80;;;;;;;-3.28;98.73;97925.00;107633;1259;71364;-68
2022/12/01 03:45:39;;;;;;;25.50;15.90;;;;;;;-3.29;98.58;97926.70;107733;1267;69740;-68
2022/12/01 03:48:09;;;;;;;25.90;16.60;;;;;;;-3.28;99.08;97922.44;107667;1269;67329;-67
2022/12/01 03:50:52;;;;;;;23.30;16.10;;;;;;;-3.26;100.00;97927.19;107621;1268;59761;-68
2022/12/01 03:53:26;;;;;;;20.40;12.30;;;;;;;-3.23;99.57;97925.29;107749;1270;59707;-68
2022/12/01 03:56:01;;;;;;;22.10;13.30;;;;;;;-3.21;98.29;97923.55;107641;1267;71320;-68
2022/12/01 03:58:37;;;;;;;21.50;15.30;;;;;;;-3.18;98.54;97923.54;107605;1267;70289;-68
2022/12/01 04:01:07;;;;;;;24.30;16.40;;;;;;;-3.18;99.75;97920.98;107628;1267;69229;-68
2022/12/01 04:03:38;;;;;;;25.90;18.00;;;;;;;-3.18;99.94;97920.80;107639;1267;59765;-68
2022/12/01 04:06:07;;;;;;;22.50;16.30;;;;;;;-3.17;100.00;97924.03;107713;1266;59698;-68
2022/12/01 04:08:38;;;;;;;23.00;16.70;;;;;;;-3.14;100.00;97925.20;107715;1265;71373;-68
2022/12/01 04:14:00;;;;;;;23.30;16.80;;;;;;;-3.10;100.00;97924.98;107660;1268;70024;-68
2022/12/01 04:16:30;;;;;;;26.00;17.30;;;;;;;-3.08;100.00;97925.64;107663;1267;59722;-68
2022/12/01 04:18:59;;;;;;;22.20;15.40;;;;;;;-3.05;100.00;97924.77;107646;1268;59745;-68
2022/12/01 04:21:29;;;;;;;17.50;12.60;;;;;;;-3.03;100.00;97924.06;107720;1259;71165;-68
2022/12/01 04:23:59;;;;;;;;;;;;;;;-3.02;100.00;97928.98;107676;1270;68384;-68
2022/12/01 04:26:31;;;;;;;26.70;18.00;;;;;;;-3.04;100.00;97933.29;107664;1268;69186;-68
2022/12/01 04:29:03;;;;;;;22.30;16.80;;;;;;;-3.08;100.00;97930.42;107654;1266;59701;-68
2022/12/01 04:31:33;;;;;;;25.80;16.10;;;;;;;-3.10;100.00;97927.89;107673;1270;59735;-68
2022/12/01 04:34:04;;;;;;;21.40;15.40;;;;;;;-3.11;100.00;97929.08;107662;1267;71320;-68
2022/12/01 04:36:34;;;;;;;24.70;15.80;;;;;;;-3.11;100.00;97933.50;107661;1268;69064;-68
2022/12/01 04:39:04;;;;;;;25.90;16.20;;;;;;;-3.13;100.00;97935.23;107656;1268;70045;-68
2022/12/01 04:41:33;;;;;;;23.70;15.00;;;;;;;-3.13;100.00;97931.66;107640;1267;59715;-68
2022/12/01 04:44:03;;;;;;;22.70;14.90;;;;;;;-3.12;100.00;97934.55;107631;1265;59719;-69
2022/12/01 04:46:33;;;;;;;19.90;15.60;;;;;;;-3.11;100.00;97936.58;107664;1263;71203;-68
2022/12/01 04:49:04;;;;;;;29.40;19.60;;;;;;;-3.09;100.00;97942.72;107682;1267;68499;-68
2022/12/01 04:51:34;;;;;;;23.40;16.00;;;;;;;-3.09;100.00;97938.11;107685;1269;69888;-68
2022/12/01 04:54:04;;;;;;;26.50;16.70;;;;;;;-3.11;100.00;97938.28;107669;1265;59679;-68
2022/12/01 04:56:33;;;;;;;21.30;16.10;;;;;;;-3.12;100.00;97940.00;107687;1267;59717;-68
2022/12/01 04:59:03;;;;;;;21.30;14.80;;;;;;;-3.11;100.00;97938.98;107731;1267;70591;-68
2022/12/01 05:01:33;;;;;;;22.50;15.00;;;;;;;-3.10;100.00;97936.75;107728;1269;69099;-68
2022/12/01 05:04:03;;;;;;;22.70;15.10;;;;;;;-3.09;100.00;97937.09;107709;1265;69127;-68
2022/12/01 05:06:34;;;;;;;18.40;12.90;;;;;;;-3.06;100.00;97937.73;107654;1270;59765;-68
2022/12/01 05:09:03;;;;;;;21.00;15.60;;;;;;;-3.04;100.00;97935.84;107740;1267;59717;-69
2022/12/01 05:11:34;;;;;;;32.30;20.30;;;;;;;-3.03;100.00;97937.20;107984;1267;71398;-67
2022/12/01 05:14:05;;;;;;;29.60;19.40;;;;;;;-3.05;100.00;97933.80;107745;1269;69187;-68
2022/12/01 05:16:34;;;;;;;28.20;18.10;;;;;;;-3.07;100.00;97932.28;107693;1265;69910;-68
2022/12/01 05:21:54;;;;;;;26.90;17.60;;;;;;;-3.06;100.00;97923.05;107647;1269;59760;-68
2022/12/01 05:24:23;;;;;;;27.00;18.30;;;;;;;-3.03;100.00;97925.42;107713;1269;71364;-68
2022/12/01 05:26:53;;;;;;;22.80;14.80;;;;;;;-3.00;100.00;97924.02;107702;1266;68419;-68
2022/12/01 05:29:22;;;;;;;21.50;14.40;;;;;;;-2.97;100.00;97915.80;107650;1267;70277;-69
2022/12/01 05:31:51;;;;;;;24.20;15.80;;;;;;;-2.94;100.00;97916.45;107675;1267;59725;-67
2022/12/01 05:34:21;;;;;;;23.00;17.60;;;;;;;-2.91;100.00;97921.88;107703;1268;59699;-68
2022/12/01 05:36:50;;;;;;;29.10;19.90;;;;;;;-2.90;100.00;97921.54;107801;1267;71431;-67
2022/12/01 05:39:19;;;;;;;28.00;19.90;;;;;;;-2.89;100.00;97925.95;107710;1261;69682;-67
2022/12/01 05:41:48;;;;;;;24.70;19.00;;;;;;;-2.88;99.84;97937.02;107689;1268;69216;-67
2022/12/01 05:44:17;;;;;;;28.00;19.80;;;;;;;-2.87;99.75;97940.94;107679;1267;59725;-67
2022/12/01 05:46:47;;;;;;;32.20;22.00;;;;;;;-2.88;99.96;97939.25;107670;1268;59704;-67
2022/12/01 05:49:16;;;;;;;47.30;29.00;;;;;;;-2.87;100.00;97938.39;107720;1267;72018;-68
2022/12/01 05:51:45;;;;;;;33.70;25.20;;;;;;;-2.85;100.00;97938.70;107671;1264;68208;-68
2022/12/01 05:54:15;;;;;;;46.20;27.60;;;;;;;-2.86;100.00;97932.74;107735;1268;69301;-68
2022/12/01 05:56:44;;;;;;;33.60;21.50;;;;;;;-2.87;100.00;97930.36;107607;1265;59689;-68
2022/12/01 05:59:14;;;;;;;37.30;23.70;;;;;;;-2.87;100.00;97935.14;107619;1267;59675;-68
2022/12/01 06:01:42;;;;;;;30.50;20.80;;;;;;;-2.88;100.00;97933.27;107666;1268;72043;-68
2022/12/01 06:04:11;;;;;;;27.30;19.50;;;;;;;-2.89;100.00;97929.70;107650;1267;69154;-68
2022/12/01 06:06:40;;;;;;;30.00;18.80;;;;;;;-2.90;100.00;97929.71;107730;1266;69239;-69
2022/12/01 06:09:09;;;;;;;40.20;26.20;;;;;;;-2.86;100.00;97933.44;107707;1269;59750;-68
2022/12/01 06:11:38;;;;;;;39.20;26.40;;;;;;;-2.84;99.79;97933.58;107707;1265;59672;-67
2022/12/01 06:14:07;;;;;;;53.10;32.70;;;;;;;-2.82;99.04;97932.52;107680;1268;71528;-68
2022/12/01 06:16:36;;;;;;;49.40;34.40;;;;;;;-2.80;99.67;97934.21;107628;1269;69228;-68
2022/12/01 06:19:05;;;;;;;48.60;32.60;;;;;;;-2.78;100.00;97938.98;107632;1269;70119;-68
2022/12/01 06:21:34;;;;;;;36.90;28.10;;;;;;;-2.74;100.00;97939.10;107639;1264;59690;-68
2022/12/01 06:24:03;;;;;;;55.00;36.80;;;;;;;-2.70;100.00;97934.61;107638;1269;59734;-68
2022/12/01 06:26:32;;;;;;;57.30;38.20;;;;;;;-2.55;100.00;97938.18;107632;1267;71374;-69
2022/12/01 06:29:01;;;;;;;58.70;39.30;;;;;;;-2.38;100.00;97936.95;107652;1270;68717;-69
2022/12/01 06:31:30;;;;;;;55.50;37.00;;;;;;;-2.27;100.00;97934.25;107651;1267;69094;-70
2022/12/01 06:33:59;;;;;;;47.80;32.30;;;;;;;-2.16;100.00;97934.60;107655;1270;59659;-69
2022/12/01 06:36:28;;;;;;;42.20;29.10;;;;;;;-1.99;100.00;97941.02;107658;1269;59774;-70
2022/12/01 06:38:57;;;;;;;40.60;28.30;;;;;;;-1.87;99.99;97942.22;107619;1268;71972;-70
2022/12/01 06:41:26;;;;;;;43.40;29.00;;;;;;;-1.78;99.02;97943.10;107654;1265;69848;-68
2022/12/01 06:43:55;;;;;;;43.40;29.20;;;;;;;-1.71;98.30;97950.86;107657;1267;68755;-68
2022/12/01 06:46:24;;;;;;;41.60;30.10;;;;;;;-1.62;98.05;97950.73;107719;1267;59688;-68
2022/12/01 06:48:53;;;;;;;45.60;32.00;;;;;;;-1.49;97.57;97950.69;107658;1267;59700;-68
2022/12/01 06:51:22;;;;;;;42.30;31.20;;;;;;;-1.36;97.03;97951.32;107729;1267;71364;-69
2022/12/01 06:53:54;;;;;;;44.00;30.50;;;;;;;-1.19;96.37;97951.05;107683;1268;68308;-68
2022/12/01 06:56:28;;;;;;;37.90;26.30;;;;;;;-0.96;95.86;97950.83;107700;1268;70065;-69
2022/12/01 06:58:57;;;;;;;34.00;26.50;;;;;;;-0.67;95.90;97950.60;107715;1269;59754;-69
2022/12/01 07:01:27;;;;;;;35.00;27.80;;;;;;;-0.38;93.63;97946.26;107726;1267;59734;-68
2022/12/01 07:03:56;;;;;;;33.20;26.90;;;;;;;-0.05;92.71;97945.73;107746;1270;70469;-68
2022/12/01 07:06:24;;;;;;;32.00;23.20;;;;;;;0.37;91.01;97944.92;107653;1268;69926;-68
2022/12/01 07:08:53;;;;;;;30.50;24.40;;;;;;;0.88;93.87;97943.00;107612;1267;69926;-68
2022/12/01 07:11:22;;;;;;;28.40;23.00;;;;;;;1.32;88.37;97942.16;107656;1267;59730;-68
2022/12/01 07:13:54;;;;;;;31.50;24.00;;;;;;;1.74;83.42;97937.20;107654;1267;59699;-68
2022/12/01 07:16:24;;;;;;;27.30;20.80;;;;;;;2.06;81.62;97928.35;107677;1264;71039;-67
2022/12/01 07:18:54;;;;;;;27.70;22.50;;;;;;;2.34;79.26;97925.08;107652;1267;69062;-68
2022/12/01 07:21:23;;;;;;;31.20;23.40;;;;;;;2.57;77.16;97923.65;107673;1267;68923;-68
2022/12/01 07:23:53;;;;;;;33.10;26.90;;;;;;;2.74;76.51;97920.69;107636;1266;59770;-68
2022/12/01 07:26:22;;;;;;;53.40;40.70;;;;;;;3.11;75.84;97917.01;107681;1267;59696;-69
2022/12/01 07:28:52;;;;;;;49.00;35.70;;;;;;;3.49;77.10;97915.13;107667;1262;70942;-68
2022/12/01 07:31:20;;;;;;;69.40;53.20;;;;;;;3.75;74.10;97909.34;107629;1270;69857;-70
2022/12/01 07:33:50;;;;;;;58.40;49.10;;;;;;;3.84;72.71;97908.15;107618;1267;69802;-70
2022/12/01 07:36:19;;;;;;;57.60;49.70;;;;;;;4.00;71.78;97904.63;107722;1268;59694;-70
2022/12/01 07:38:48;;;;;;;52.40;42.80;;;;;;;4.51;73.68;97912.45;107793;1266;59714;-70
2022/12/01 07:41:18;;;;;;;42.50;34.70;;;;;;;4.86;71.33;97914.10;107668;1267;72144;-70
2022/12/01 07:43:47;;;;;;;41.10;35.00;;;;;;;5.19;71.29;97913.75;107610;1270;68454;-69
2022/12/01 07:46:19;;;;;;;41.50;32.80;;;;;;;5.58;70.81;97914.77;107663;1270;69480;-69
2022/12/01 07:48:53;;;;;;;32.00;26.20;;;;;;;5.82;67.32;97916.48;107642;1267;59731;-70
2022/12/01 07:51:22;;;;;;;;;;;;;;;5.89;63.38;97911.33;107687;1266;59720;-69
2022/12/01 07:53:53;;;;;;;24.70;19.80;;;;;;;5.85;62.78;97909.08;107667;1270;70607;-69
2022/12/01 07:56:22;;;;;;;22.80;17.70;;;;;;;5.64;63.20;97911.26;107678;1267;69783;-69
2022/12/01 07:58:50;;;;;;;17.00;12.80;;;;;;;6.15;63.32;97906.50;107639;1267;68315;-70
2022/12/01 08:01:22;;;;;;;14.20;11.90;;;;;;;6.70;62.91;97915.11;107635;1268;59706;-71
2022/12/01 08:03:53;;;;;;;13.40;11.70;;;;;;;6.64;58.99;97913.14;107700;1269;59721;-70
2022/12/01 08:06:23;;;;;;;12.40;10.80;;;;;;;6.87;59.31;97912.35;107797;1269;71357;-69
2022/12/01 08:08:51;;;;;;;;;;;;;;;7.52;60.93;97909.70;107913;1268;68564;-70
2022/12/01 08:11:28;;;;;;;15.60;12.50;;;;;;;7.70;55.70;97905.82;107650;1267;70003;-71
2022/12/01 08:13:59;;;;;;;15.30;13.00;;;;;;;7.93;56.69;97907.70;107818;1267;59745;-69
2022/12/01 08:16:28;;;;;;;16.30;12.00;;;;;;;8.43;55.14;97903.27;107656;1269;59700;-70
2022/12/01 08:18:57;;;;;;;19.10;14.00;;;;;;;8.59;53.78;97901.96;107794;1271;70394;-70
2022/12/01 08:21:26;;;;;;;18.70;14.80;;;;;;;8.93;53.21;97897.77;107655;1264;68344;-70
2022/12/01 08:23:56;;;;;;;17.50;14.10;;;;;;;9.19;53.03;97895.73;107681;1268;68529;-71
2022/12/01 08:26:26;;;;;;;19.50;15.40;;;;;;;9.38;50.89;97885.51;107645;1266;59731;-70
2022/12/01 08:28:56;;;;;;;15.90;12.50;;;;;;;10.29;54.44;97883.52;107681;1267;59779;-70
2022/12/01 08:31:29;;;;;;;16.50;13.50;;;;;;;10.41;48.53;97883.27;107681;1267;71437;-70
2022/12/01 08:33:58;;;;;;;18.20;13.90;;;;;;;10.39;47.77;97881.84;107665;1267;69172;-67
2022/12/01 08:36:26;;;;;;;15.10;12.90;;;;;;;10.60;49.62;97881.66;107652;1267;69894;-70
2022/12/01 08:38:55;;;;;;;15.00;13.30;;;;;;;11.37;49.62;97879.85;107628;1270;59756;-70
2022/12/01 08:41:24;;;;;;;17.80;15.30;;;;;;;12.02;47.63;97878.48;107690;1267;59673;-70
2022/12/01 08:43:54;;;;;;;16.70;14.70;;;;;;;12.19;45.75;97875.88;107661;1269;70890;-69
2022/12/01 08:46:30;;;;;;;16.20;14.30;;;;;;;12.14;44.60;97873.80;107703;1267;69881;-67
2022/12/01 08:48:59;;;;;;;14.70;13.10;;;;;;;11.87;44.61;97872.38;107661;1270;69805;-67
2022/12/01 08:51:29;;;;;;;16.70;13.30;;;;;;;10.91;44.87;97875.29;107678;1267;59755;-67
2022/12/01 08:53:59;;;;;;;13.30;11.30;;;;;;;10.32;46.73;97870.08;107751;1263;60087;-67
2022/12/01 08:56:37;;;;;;;15.40;13.70;;;;;;;9.21;48.69;97867.52;107687;1268;70444;-67
2022/12/01 08:59:06;;;;;;;16.70;14.30;;;;;;;8.31;51.48;97866.73;107638;1267;69238;-68
2022/12/01 09:01:51;;;;;;;15.00;13.40;;;;;;;7.78;52.99;97864.95;107627;1266;69505;-67
2022/12/01 09:04:25;;;;;;;27.30;19.70;;;;;;;7.07;54.86;97861.61;107653;1267;59766;-67
2022/12/01 09:06:56;;;;;;;28.00;20.90;;;;;;;6.67;55.85;97865.04;107662;1267;59649;-67
2022/12/01 09:09:28;;;;;;;26.50;20.10;;;;;;;5.86;58.57;97860.42;107634;1269;71383;-66
2022/12/01 09:11:57;;;;;;;21.10;17.20;;;;;;;5.72;58.55;97864.36;107658;1268;69123;-66
2022/12/01 09:14:26;;;;;;;21.30;17.60;;;;;;;5.50;59.08;97861.20;107600;1267;68963;-66
2022/12/01 09:16:54;;;;;;;23.10;19.00;;;;;;;5.17;60.63;97855.44;107639;1269;59721;-66
2022/12/01 09:19:23;;;;;;;24.40;19.10;;;;;;;5.00;61.56;97852.86;107680;1264;59774;-66
2022/12/01 09:21:52;;;;;;;19.50;16.30;;;;;;;4.95;61.60;97855.85;107672;1267;72001;-66
2022/12/01 09:24:21;;;;;;;20.60;16.10;;;;;;;5.05;61.88;97857.84;107649;1268;69368;-66
2022/12/01 09:26:55;;;;;;;27.50;20.90;;;;;;;5.14;61.55;97855.23;107675;1267;69901;-66
2022/12/01 09:29:24;;;;;;;21.40;17.30;;;;;;;5.02;62.29;97856.25;107616;1267;59715;-67
2022/12/01 09:31:58;;;;;;;23.70;17.20;;;;;;;4.75;63.54;97852.06;107733;1269;59743;-67
2022/12/01 09:34:27;;;;;;;23.90;17.20;;;;;;;4.65;64.43;97849.53;107685;1267;72361;-66
2022/12/01 09:36:57;;;;;;;24.40;19.30;;;;;;;4.87;63.86;97846.52;107648;1264;69753;-66
2022/12/01 09:39:27;;;;;;;30.60;23.90;;;;;;;5.02;63.51;97845.90;107620;1269;68106;-67
2022/12/01 09:42:06;;;;;;;34.30;28.10;;;;;;;5.04;63.94;97846.46;107610;1272;59777;-66
2022/12/01 09:44:39;;;;;;;35.20;27.20;;;;;;;5.10;64.17;97834.30;107669;1265;59766;-67
2022/12/01 09:47:17;;;;;;;41.50;30.90;;;;;;;5.10;64.14;97829.13;107619;1267;71355;-66
2022/12/01 09:49:59;;;;;;;33.20;26.80;;;;;;;5.33;62.67;97826.02;107713;1267;69776;-66
2022/12/01 09:52:40;;;;;;;24.20;19.00;;;;;;;5.57;61.77;97824.77;107632;1268;69255;-67
2022/12/01 09:55:15;;;;;;;23.80;18.10;;;;;;;6.21;60.93;97824.70;107653;1270;59814;-67
2022/12/01 09:57:48;;;;;;;14.50;11.90;;;;;;;6.95;58.79;97823.40;107720;1268;59667;-67
2022/12/01 10:00:23;;;;;;;9.80;7.60;;;;;;;7.25;54.01;97821.50;107721;1268;71166;-68
2022/12/01 10:02:55;;;;;;;13.00;11.00;;;;;;;7.06;53.75;97825.77;107617;1267;69212;-68
2022/12/01 10:05:31;;;;;;;13.20;11.00;;;;;;;7.34;54.25;97822.03;107634;1269;69807;-68
2022/12/01 10:08:03;;;;;;;14.30;11.10;;;;;;;7.76;54.33;97820.85;107724;1267;59783;-68
2022/12/01 10:10:41;;;;;;;11.60;8.50;;;;;;;7.89;51.89;97813.86;107643;1267;59725;-68
2022/12/01 10:13:21;;;;;;;13.40;11.10;;;;;;;8.03;51.58;97817.23;107664;1267;71409;-67
2022/12/01 10:15:52;;;;;;;15.70;12.00;;;;;;;8.41;51.38;97822.93;107629;1267;69686;-67
2022/12/01 10:18:51;;;;;;;12.90;9.70;;;;;;;8.77;50.68;97818.75;107628;1267;68691;-68
2022/12/01 10:21:41;;;;;;;13.00;10.60;;;;;;;9.45;50.93;97814.30;107611;1268;59738;-68
2022/12/01 10:24:34;;;;;;;9.30;7.60;;;;;;;9.40;48.68;97811.83;107646;1269;59675;-66
2022/12/01 10:27:34;;;;;;;11.20;9.60;;;;;;;9.16;48.62;97810.67;107630;1267;69814;-66
2022/12/01 10:30:17;;;;;;;12.40;10.90;;;;;;;8.63;49.67;97811.73;107644;1267;69136;-68
2022/12/01 10:32:53;;;;;;;15.10;12.70;;;;;;;8.34;50.31;97812.38;107621;1270;69252;-68
2022/12/01 10:35:27;;;;;;;16.50;14.30;;;;;;;7.79;51.18;97808.87;107640;1269;59723;-68
2022/12/01 10:38:00;;;;;;;21.00;17.30;;;;;;;7.01;52.98;97804.38;107672;1263;59713;-68
2022/12/01 10:40:33;;;;;;;23.10;19.40;;;;;;;6.64;54.29;97799.38;107728;1267;71840;-68
2022/12/01 10:43:02;;;;;;;34.70;26.90;;;;;;;6.17;55.44;97802.05;107666;1267;69672;-67
2022/12/01 10:45:36;;;;;;;30.10;24.90;;;;;;;5.94;55.86;97800.73;107695;1267;69879;-67
2022/12/01 10:48:17;;;;;;;26.00;20.80;;;;;;;5.71;56.83;97806.46;107625;1270;59744;-67
2022/12/01 10:50:52;;;;;;;24.50;18.30;;;;;;;5.53;57.62;97799.71;107668;1267;59752;-66
2022/12/01 10:53:26;;;;;;;19.00;14.60;;;;;;;5.23;59.00;97794.51;107668;1268;71474;-66
2022/12/01 10:56:11;;;;;;;16.90;14.10;;;;;;;5.08;59.69;97795.36;107670;1267;69697;-70
2022/12/01 10:58:50;;;;;;;22.50;16.00;;;;;;;5.11;59.13;97792.45;107665;1267;69367;-70
2022/12/01 11:01:24;;;;;;;17.10;11.70;;;;;;;5.16;58.76;97789.46;107736;1267;59766;-69
2022/12/01 11:04:00;;;;;;;23.30;15.90;;;;;;;5.21;57.93;97787.54;107945;1267;59716;-66
2022/12/01 11:06:30;;;;;;;21.70;16.30;;;;;;;5.25;58.54;97784.70;107706;1268;71987;-67
2022/12/01 11:09:05;;;;;;;22.40;16.60;;;;;;;5.32;59.28;97779.02;107689;1269;69027;-68
2022/12/01 11:11:39;;;;;;;23.90;16.70;;;;;;;5.48;59.13;97775.39;107758;1267;69741;-69
2022/12/01 11:14:24;;;;;;;22.70;16.60;;;;;;;5.52;58.75;97778.27;107757;1267;59751;-67
2022/12/01 11:16:53;;;;;;;46.90;27.40;;;;;;;5.63;58.49;97776.09;107778;1270;59763;-69
2022/12/01 11:19:32;;;;;;;32.30;22.20;;;;;;;5.61;57.98;97777.67;107639;1267;71026;-70
2022/12/01 11:22:27;;;;;;;15.60;12.20;;;;;;;5.63;58.15;97774.17;107639;1267;69415;-69
2022/12/01 11:25:00;;;;;;;22.90;18.00;;;;;;;5.74;58.46;97767.25;107718;1267;69096;-70
2022/12/01 11:27:44;;;;;;;22.30;18.10;;;;;;;5.92;58.41;97763.11;107710;1267;59709;-71
2022/12/01 11:30:25;;;;;;;25.10;18.00;;;;;;;6.08;58.42;97763.90;107618;1267;59653;-71
2022/12/01 11:32:59;;;;;;;19.90;15.40;;;;;;;6.25;57.86;97762.73;107659;1268;71124;-70
2022/12/01 11:35:35;;;;;;;19.90;15.60;;;;;;;6.36;57.61;97762.52;107723;1267;68404;-71
2022/12/01 11:38:06;;;;;;;25.50;19.40;;;;;;;6.27;56.96;97762.63;107664;1267;70353;-71
2022/12/01 11:40:57;;;;;;;31.10;20.70;;;;;;;6.20;57.08;97754.86;107637;1267;59770;-70
2022/12/01 11:43:31;;;;;;;40.00;26.80;;;;;;;6.28;57.13;97762.36;107627;1267;59726;-71
2022/12/01 11:46:05;;;;;;;31.00;22.10;;;;;;;6.28;57.32;97764.98;107694;1267;71265;-71
2022/12/01 11:48:35;;;;;;;46.20;31.30;;;;;;;6.58;56.17;97760.70;107690;1267;69224;-71